createdAt,value
2019-03-27T00:01:03.923Z,89.07
2019-03-27T00:04:01.058Z,88.18
2019-03-27T00:06:58.181Z,87.34
2019-03-27T00:09:54.336Z,87.44
2019-03-27T00:12:51.863Z,88.44
2019-03-27T00:15:47.824Z,90.05
2019-03-27T00:18:45.009Z,91.86
2019-03-27T00:21:41.100Z,92.83
2019-03-27T00:24:38.453Z,93.53
2019-03-27T00:27:35.922Z,94.17
2019-03-27T00:30:32.350Z,95.34
2019-03-27T00:33:37.597Z,96.64
2019-03-27T00:36:33.716Z,97.50
2019-03-27T00:39:30.799Z,98.37
2019-03-27T00:42:27.978Z,98.84
2019-03-27T00:45:27.255Z,99.41
2019-03-27T00:48:23.304Z,100.00
2019-03-27T00:51:19.585Z,100.00
2019-03-27T00:54:17.525Z,100.00
2019-03-27T00:57:14.640Z,100.00
2019-03-27T01:00:11.879Z,100.00
2019-03-27T01:03:09.002Z,100.00
2019-03-27T01:06:06.383Z,100.00
2019-03-27T01:09:05.980Z,100.00
2019-03-27T01:12:03.334Z,100.00
2019-03-27T01:15:00.390Z,100.00
2019-03-27T01:17:56.449Z,100.00
2019-03-27T01:20:53.577Z,100.00
2019-03-27T01:23:50.517Z,100.00
2019-03-27T01:26:47.878Z,100.00
2019-03-27T01:29:43.906Z,100.00
2019-03-27T01:32:41.226Z,100.00
2019-03-27T01:35:38.314Z,100.00
2019-03-27T01:38:34.444Z,100.00
2019-03-27T01:41:31.766Z,100.00
2019-03-27T01:44:28.876Z,100.00
2019-03-27T01:47:26.099Z,100.00
2019-03-27T01:50:21.443Z,100.00
2019-03-27T01:53:19.412Z,100.00
2019-03-27T01:56:17.187Z,100.00
2019-03-27T01:59:14.619Z,100.00
2019-03-27T02:02:11.689Z,100.00
2019-03-27T02:05:09.028Z,100.00
2019-03-27T02:08:05.848Z,100.00
2019-03-27T02:11:01.745Z,100.00
2019-03-27T02:13:59.892Z,100.00
2019-03-27T02:16:56.235Z,100.00
2019-03-27T02:19:52.073Z,100.00
2019-03-27T02:22:49.596Z,100.00
2019-03-27T02:25:45.633Z,100.00
2019-03-27T02:28:43.009Z,100.00
2019-03-27T02:31:39.120Z,100.00
2019-03-27T02:34:36.277Z,100.00
2019-03-27T02:37:32.422Z,100.00
2019-03-27T02:40:29.663Z,100.00
2019-03-27T02:43:25.896Z,100.00
2019-03-27T02:46:24.883Z,100.00
2019-03-27T02:49:20.590Z,100.00
2019-03-27T02:52:16.948Z,100.00
2019-03-27T02:55:15.272Z,100.00
2019-03-27T02:58:12.119Z,100.00
2019-03-27T03:01:10.204Z,100.00
2019-03-27T03:04:08.278Z,100.00
2019-03-27T03:07:04.938Z,100.00
2019-03-27T03:10:01.209Z,100.00
2019-03-27T03:12:57.817Z,100.00
2019-03-27T03:15:55.722Z,100.00
2019-03-27T03:18:53.137Z,100.00
2019-03-27T03:21:50.218Z,100.00
2019-03-27T03:24:47.269Z,100.00
2019-03-27T03:27:44.532Z,100.00
2019-03-27T03:30:40.185Z,100.00
2019-03-27T03:33:37.201Z,100.00
2019-03-27T03:36:35.422Z,100.00
2019-03-27T03:39:31.145Z,100.00
2019-03-27T03:42:27.885Z,100.00
2019-03-27T03:45:24.526Z,100.00
2019-03-27T03:48:21.438Z,100.00
2019-03-27T03:51:17.498Z,100.00
2019-03-27T03:54:14.713Z,100.00
2019-03-27T03:57:11.776Z,100.00
2019-03-27T04:00:08.010Z,100.00
2019-03-27T04:03:06.149Z,100.00
2019-03-27T04:06:04.269Z,100.00
2019-03-27T04:09:01.418Z,100.00
2019-03-27T04:11:56.937Z,100.00
2019-03-27T04:14:53.992Z,100.00
2019-03-27T04:17:50.090Z,100.00
2019-03-27T04:20:47.447Z,100.00
2019-03-27T04:23:43.776Z,100.00
2019-03-27T04:26:41.842Z,100.00
2019-03-27T04:29:37.726Z,100.00
2019-03-27T04:32:34.739Z,100.00
2019-03-27T04:35:32.065Z,100.00
2019-03-27T04:38:28.189Z,100.00
2019-03-27T04:41:25.368Z,100.00
2019-03-27T04:44:21.701Z,100.00
2019-03-27T04:47:31.516Z,100.00
2019-03-27T04:50:15.742Z,100.00
2019-03-27T04:53:12.446Z,100.00
2019-03-27T04:56:08.541Z,100.00
2019-03-27T04:59:06.338Z,100.00
2019-03-27T05:02:02.671Z,100.00
2019-03-27T05:04:59.912Z,100.00
2019-03-27T05:07:57.153Z,100.00
2019-03-27T05:10:53.096Z,100.00
2019-03-27T05:13:50.242Z,100.00
2019-03-27T05:16:47.318Z,100.00
2019-03-27T05:19:44.059Z,100.00
2019-03-27T05:22:41.222Z,100.00
2019-03-27T05:25:37.032Z,100.00
2019-03-27T05:28:34.187Z,100.00
2019-03-27T05:31:31.016Z,100.00
2019-03-27T05:34:28.391Z,100.00
2019-03-27T05:37:25.539Z,100.00
2019-03-27T05:40:22.214Z,100.00
2019-03-27T05:43:19.334Z,100.00
2019-03-27T05:46:17.218Z,100.00
2019-03-27T05:49:14.567Z,100.00
2019-03-27T05:52:10.480Z,100.00
2019-03-27T05:55:07.650Z,100.00
2019-03-27T05:58:05.983Z,100.00
2019-03-27T06:01:03.035Z,100.00
2019-03-27T06:04:00.105Z,100.00
2019-03-27T06:07:00.156Z,100.00
2019-03-27T06:09:56.238Z,100.00
2019-03-27T06:12:53.692Z,100.00
2019-03-27T06:15:49.997Z,100.00
2019-03-27T06:18:47.343Z,100.00
2019-03-27T06:21:43.735Z,100.00
2019-03-27T06:24:40.948Z,100.00
2019-03-27T06:27:37.900Z,100.00
2019-03-27T06:30:34.927Z,100.00
2019-03-27T06:33:31.870Z,100.00
2019-03-27T06:36:27.940Z,100.00
2019-03-27T06:39:25.369Z,100.00
2019-03-27T06:42:26.686Z,100.00
2019-03-27T06:45:24.065Z,100.00
2019-03-27T06:48:26.347Z,100.00
2019-03-27T06:51:18.475Z,100.00
2019-03-27T06:54:14.584Z,100.00
2019-03-27T06:57:12.679Z,100.00
2019-03-27T07:00:08.508Z,100.00
2019-03-27T07:03:05.228Z,100.00
2019-03-27T07:06:02.533Z,100.00
2019-03-27T07:09:01.607Z,100.00
2019-03-27T07:11:58.870Z,100.00
2019-03-27T07:14:56.230Z,100.00
2019-03-27T07:17:54.544Z,100.00
2019-03-27T07:20:52.850Z,100.00
2019-03-27T07:23:48.700Z,100.00
2019-03-27T07:26:45.794Z,100.00
2019-03-27T07:29:42.026Z,100.00
2019-03-27T07:32:39.209Z,100.00
2019-03-27T07:35:35.467Z,100.00
2019-03-27T07:38:32.910Z,100.00
2019-03-27T07:41:30.158Z,100.00
2019-03-27T07:44:26.004Z,100.00
2019-03-27T07:47:23.002Z,100.00
2019-03-27T07:50:20.143Z,100.00
2019-03-27T07:53:16.385Z,100.00
2019-03-27T07:56:13.551Z,100.00
2019-03-27T07:59:10.929Z,100.00
2019-03-27T08:02:08.459Z,100.00
2019-03-27T08:05:04.321Z,100.00
2019-03-27T08:08:02.382Z,100.00
2019-03-27T08:10:59.768Z,100.00
2019-03-27T08:13:57.112Z,100.00
2019-03-27T08:16:53.448Z,100.00
2019-03-27T08:19:51.005Z,100.00
2019-03-27T08:22:49.402Z,100.00
2019-03-27T08:25:44.868Z,100.00
2019-03-27T08:28:42.764Z,100.00
2019-03-27T08:31:38.586Z,100.00
2019-03-27T08:34:35.509Z,100.00
2019-03-27T08:37:31.870Z,100.00
2019-03-27T08:40:30.013Z,100.00
2019-03-27T08:43:28.078Z,100.00
2019-03-27T08:46:24.148Z,100.00
2019-03-27T08:49:22.699Z,100.00
2019-03-27T08:52:18.557Z,100.00
2019-03-27T08:55:15.765Z,100.00
2019-03-27T08:58:11.986Z,100.00
2019-03-27T09:01:11.637Z,100.00
2019-03-27T09:04:07.586Z,100.00
2019-03-27T09:07:04.369Z,100.00
2019-03-27T09:10:02.526Z,100.00
2019-03-27T09:12:58.909Z,97.66
2019-03-27T09:15:55.184Z,96.96
2019-03-27T09:18:52.419Z,94.71
2019-03-27T09:21:49.442Z,93.55
2019-03-27T09:24:46.640Z,92.29
2019-03-27T09:27:41.828Z,94.06
2019-03-27T09:30:39.514Z,86.45
2019-03-27T09:33:36.555Z,88.12
2019-03-27T09:36:32.544Z,90.34
2019-03-27T09:39:32.215Z,91.32
2019-03-27T09:42:28.572Z,90.20
2019-03-27T09:45:25.806Z,88.19
2019-03-27T09:48:21.912Z,86.49
2019-03-27T09:51:19.663Z,85.38
2019-03-27T09:54:16.072Z,86.97
2019-03-27T09:57:13.130Z,87.05
2019-03-27T10:00:11.176Z,85.01
2019-03-27T10:03:08.087Z,85.00
2019-03-27T10:06:05.223Z,84.29
2019-03-27T10:09:02.292Z,83.39
2019-03-27T10:11:59.631Z,82.64
2019-03-27T10:14:57.031Z,83.79
2019-03-27T10:17:53.984Z,83.28
2019-03-27T10:20:51.578Z,82.07
2019-03-27T10:23:47.874Z,82.59
2019-03-27T10:26:44.854Z,82.59
2019-03-27T10:29:40.456Z,83.58
2019-03-27T10:32:37.569Z,81.77
2019-03-27T10:35:33.806Z,82.98
2019-03-27T10:38:31.190Z,83.76
2019-03-27T10:41:29.284Z,82.89
2019-03-27T10:44:25.551Z,77.98
2019-03-27T10:47:22.876Z,78.77
2019-03-27T10:50:18.956Z,81.48
2019-03-27T10:53:16.338Z,81.63
2019-03-27T10:56:12.228Z,81.42
2019-03-27T10:59:09.625Z,81.02
2019-03-27T11:02:06.774Z,80.62
2019-03-27T11:05:04.235Z,78.09
2019-03-27T11:08:00.316Z,80.81
2019-03-27T11:10:58.385Z,77.29
2019-03-27T11:13:55.546Z,76.48
2019-03-27T11:16:53.753Z,75.88
2019-03-27T11:19:50.485Z,77.50
2019-03-27T11:22:45.932Z,76.74
2019-03-27T11:25:43.036Z,77.64
2019-03-27T11:28:40.301Z,77.23
2019-03-27T11:31:39.684Z,74.25
2019-03-27T11:34:35.632Z,74.77
2019-03-27T11:37:32.710Z,73.04
2019-03-27T11:40:28.802Z,73.67
2019-03-27T11:43:25.840Z,74.00
2019-03-27T11:46:23.109Z,74.30
2019-03-27T11:49:19.204Z,74.58
2019-03-27T11:52:16.815Z,73.44
2019-03-27T11:55:12.717Z,68.30
2019-03-27T11:58:10.084Z,70.87
2019-03-27T12:01:06.313Z,68.84
2019-03-27T12:04:03.409Z,66.68
2019-03-27T12:06:59.717Z,69.28
2019-03-27T12:09:59.022Z,68.18
2019-03-27T12:12:55.120Z,68.77
2019-03-27T12:15:59.877Z,66.46
2019-03-27T12:18:58.060Z,67.88
2019-03-27T12:21:56.096Z,65.81
2019-03-27T12:24:53.183Z,65.99
2019-03-27T12:27:50.346Z,64.40
2019-03-27T12:30:48.919Z,65.00
2019-03-27T12:33:45.925Z,65.38
2019-03-27T12:36:42.871Z,64.14
2019-03-27T12:39:40.922Z,64.89
2019-03-27T12:42:37.757Z,66.55
2019-03-27T12:45:35.064Z,64.97
2019-03-27T12:48:31.073Z,66.57
2019-03-27T12:51:28.431Z,65.76
2019-03-27T12:54:24.437Z,64.38
2019-03-27T12:57:21.482Z,65.93
2019-03-27T13:00:17.153Z,66.63
2019-03-27T13:03:14.789Z,68.17
2019-03-27T13:06:13.102Z,66.62
2019-03-27T13:09:08.921Z,63.41
2019-03-27T13:12:08.209Z,63.63
2019-03-27T13:15:04.252Z,65.92
2019-03-27T13:18:01.131Z,67.17
2019-03-27T13:20:58.288Z,68.52
2019-03-27T13:23:54.552Z,68.64
2019-03-27T13:26:51.802Z,68.89
2019-03-27T13:29:48.852Z,69.78
2019-03-27T13:32:45.889Z,65.63
2019-03-27T13:35:43.026Z,65.63
2019-03-27T13:38:39.048Z,66.69
2019-03-27T13:41:36.093Z,67.79
2019-03-27T13:44:37.358Z,67.56
2019-03-27T13:47:31.232Z,68.25
2019-03-27T13:50:27.392Z,67.72
2019-03-27T13:53:24.647Z,67.97
2019-03-27T13:56:20.181Z,69.05
2019-03-27T13:59:17.453Z,69.05
2019-03-27T14:02:13.152Z,68.42
2019-03-27T14:05:10.416Z,68.56
2019-03-27T14:08:06.592Z,68.97
2019-03-27T14:11:04.692Z,68.12
2019-03-27T14:14:10.690Z,67.47
2019-03-27T14:16:57.470Z,68.37
2019-03-27T14:19:52.870Z,67.21
2019-03-27T14:22:50.067Z,67.42
2019-03-27T14:25:47.404Z,67.06
2019-03-27T14:28:43.537Z,66.55
2019-03-27T14:31:40.779Z,67.72
2019-03-27T14:34:36.847Z,68.32
2019-03-27T14:37:35.281Z,68.29
2019-03-27T14:40:31.355Z,67.50
2019-03-27T14:43:28.670Z,67.11
2019-03-27T14:46:25.407Z,67.63
2019-03-27T14:49:22.571Z,67.54
2019-03-27T14:52:19.695Z,67.15
2019-03-27T14:55:15.847Z,68.12
2019-03-27T14:58:13.726Z,67.54
2019-03-27T15:01:11.053Z,68.02
2019-03-27T15:04:09.270Z,67.14
2019-03-27T15:07:05.418Z,65.57
2019-03-27T15:10:02.476Z,65.90
2019-03-27T15:12:59.401Z,64.47
2019-03-27T15:15:57.330Z,63.82
2019-03-27T15:18:52.704Z,64.54
2019-03-27T15:21:49.227Z,65.02
2019-03-27T15:24:47.268Z,64.40
2019-03-27T15:27:44.386Z,64.60
2019-03-27T15:30:41.681Z,64.08
2019-03-27T15:33:38.942Z,63.68
2019-03-27T15:36:35.901Z,63.92
2019-03-27T15:39:32.217Z,64.42
2019-03-27T15:42:29.394Z,64.33
2019-03-27T15:45:27.669Z,64.76
2019-03-27T15:48:22.670Z,65.78
2019-03-27T15:51:19.830Z,66.07
2019-03-27T15:54:15.873Z,67.33
2019-03-27T15:57:14.316Z,67.23
2019-03-27T16:00:10.424Z,67.65
2019-03-27T16:03:07.476Z,68.24
2019-03-27T16:06:04.584Z,65.88
2019-03-27T16:09:01.969Z,65.85
2019-03-27T16:11:59.089Z,66.63
2019-03-27T16:14:56.805Z,66.97
2019-03-27T16:17:53.926Z,67.95
2019-03-27T16:20:49.988Z,69.91
2019-03-27T16:23:47.040Z,69.91
2019-03-27T16:26:44.106Z,69.49
2019-03-27T16:29:42.315Z,69.49
2019-03-27T16:32:38.073Z,68.58
2019-03-27T16:35:36.043Z,69.16
2019-03-27T16:38:33.050Z,69.44
2019-03-27T16:41:28.437Z,70.71
2019-03-27T16:44:26.487Z,70.71
2019-03-27T16:47:22.679Z,71.89
2019-03-27T16:50:19.819Z,72.57
2019-03-27T16:53:16.111Z,73.64
2019-03-27T16:56:14.663Z,74.30
2019-03-27T16:59:10.664Z,75.30
2019-03-27T17:02:07.902Z,75.44
2019-03-27T17:05:05.081Z,75.87
2019-03-27T17:08:01.314Z,76.21
2019-03-27T17:10:59.138Z,76.49
2019-03-27T17:13:55.416Z,77.16
2019-03-27T17:16:53.110Z,77.47
2019-03-27T17:19:49.231Z,77.62
2019-03-27T17:22:46.347Z,77.69
2019-03-27T17:25:43.458Z,77.85
2019-03-27T17:28:40.965Z,78.07
2019-03-27T17:31:38.123Z,78.21
2019-03-27T17:34:34.155Z,78.52
2019-03-27T17:37:33.960Z,79.04
2019-03-27T17:40:30.368Z,79.44
2019-03-27T17:43:27.441Z,80.00
2019-03-27T17:46:24.492Z,80.17
2019-03-27T17:49:21.881Z,80.28
2019-03-27T17:52:17.839Z,80.58
2019-03-27T17:55:14.924Z,80.70
2019-03-27T17:58:11.849Z,80.61
2019-03-27T18:01:09.334Z,80.67
2019-03-27T18:04:07.769Z,80.56
2019-03-27T18:07:05.083Z,81.22
2019-03-27T18:10:02.371Z,81.72
2019-03-27T18:13:03.141Z,82.06
2019-03-27T18:16:00.458Z,82.28
2019-03-27T18:19:01.307Z,82.34
2019-03-27T18:22:07.524Z,82.47
2019-03-27T18:24:59.817Z,82.80
2019-03-27T18:27:58.609Z,83.04
2019-03-27T18:30:55.219Z,83.09
2019-03-27T18:33:52.458Z,82.96
2019-03-27T18:36:49.003Z,83.27
2019-03-27T18:39:45.475Z,83.37
2019-03-27T18:42:42.932Z,83.42
2019-03-27T18:45:40.225Z,83.43
2019-03-27T18:48:38.560Z,83.30
2019-03-27T18:51:36.035Z,83.28
2019-03-27T18:54:33.818Z,83.40
2019-03-27T18:57:36.466Z,83.60
2019-03-27T19:00:32.978Z,84.16
2019-03-27T19:03:36.215Z,85.48
2019-03-27T19:06:27.518Z,86.37
2019-03-27T19:09:24.745Z,86.85
2019-03-27T19:12:23.342Z,87.31
2019-03-27T19:15:19.303Z,87.59
2019-03-27T19:18:16.833Z,87.60
2019-03-27T19:21:17.342Z,87.31
2019-03-27T19:24:16.817Z,87.44
2019-03-27T19:27:10.819Z,87.48
2019-03-27T19:30:08.245Z,87.52
2019-03-27T19:33:06.799Z,87.54
2019-03-27T19:36:02.998Z,87.81
2019-03-27T19:39:05.091Z,88.20
2019-03-27T19:42:02.728Z,88.13
2019-03-27T19:45:03.954Z,88.39
2019-03-27T19:48:09.447Z,88.72
2019-03-27T19:51:06.578Z,89.15
2019-03-27T19:54:06.824Z,89.15
2019-03-27T19:57:05.608Z,88.98
2019-03-27T20:00:03.069Z,88.70
2019-03-27T20:03:06.906Z,89.09
2019-03-27T20:06:16.261Z,89.06
2019-03-27T20:09:22.281Z,89.00
2019-03-27T20:12:18.324Z,89.17
2019-03-27T20:15:41.974Z,89.44
2019-03-27T20:18:34.753Z,89.92
2019-03-27T20:21:32.231Z,90.80
2019-03-27T20:24:40.378Z,91.40
2019-03-27T20:27:25.665Z,91.97
2019-03-27T20:30:26.981Z,92.17
2019-03-27T20:33:29.297Z,92.45
2019-03-27T20:36:27.720Z,92.56
2019-03-27T20:39:24.354Z,92.93
2019-03-27T20:42:20.828Z,93.06
2019-03-27T20:45:22.815Z,93.14
2019-03-27T20:48:19.794Z,93.28
2019-03-27T20:51:24.558Z,93.35
2019-03-27T20:54:23.739Z,93.42
2019-03-27T20:57:20.916Z,93.59
2019-03-27T21:00:18.321Z,93.75
2019-03-27T21:03:15.899Z,94.12
2019-03-27T21:06:12.413Z,94.35
2019-03-27T21:09:10.772Z,95.24
2019-03-27T21:12:12.994Z,95.07
2019-03-27T21:15:09.329Z,95.47
2019-03-27T21:18:06.785Z,95.69
2019-03-27T21:21:04.148Z,95.82
2019-03-27T21:24:02.947Z,95.85
2019-03-27T21:26:59.584Z,95.88
2019-03-27T21:29:58.904Z,96.04
2019-03-27T21:32:55.483Z,96.41
2019-03-27T21:35:59.416Z,96.70
2019-03-27T21:38:56.077Z,96.85
2019-03-27T21:41:53.370Z,96.83
2019-03-27T21:44:50.655Z,96.97
2019-03-27T21:47:47.094Z,97.05
2019-03-27T21:50:45.465Z,97.16
2019-03-27T21:53:42.835Z,97.17
2019-03-27T21:56:39.241Z,97.31
2019-03-27T21:59:37.741Z,97.58
2019-03-27T22:02:34.103Z,97.42
2019-03-27T22:05:32.127Z,97.50
2019-03-27T22:08:28.299Z,97.32
2019-03-27T22:11:26.751Z,97.27
2019-03-27T22:14:23.018Z,97.69
2019-03-27T22:17:20.416Z,97.94
2019-03-27T22:20:18.609Z,98.89
2019-03-27T22:23:15.006Z,100.00
2019-03-27T22:26:11.632Z,100.00
2019-03-27T22:29:07.885Z,100.00
2019-03-27T22:32:06.934Z,100.00
2019-03-27T22:35:02.328Z,100.00
2019-03-27T22:38:00.166Z,100.00
2019-03-27T22:40:56.270Z,100.00
2019-03-27T22:43:53.527Z,100.00
2019-03-27T22:46:50.696Z,100.00
2019-03-27T22:49:47.032Z,100.00
2019-03-27T22:52:44.415Z,100.00
2019-03-27T22:55:49.910Z,100.00
2019-03-27T22:58:37.968Z,100.00
2019-03-27T23:01:36.258Z,100.00
2019-03-27T23:04:33.434Z,100.00
2019-03-27T23:07:30.673Z,100.00
2019-03-27T23:10:27.715Z,100.00
2019-03-27T23:13:26.309Z,100.00
2019-03-27T23:16:22.436Z,100.00
2019-03-27T23:19:19.486Z,100.00
2019-03-27T23:22:16.640Z,100.00
2019-03-27T23:25:14.625Z,100.00
2019-03-27T23:28:11.245Z,100.00
2019-03-27T23:31:08.883Z,100.00
2019-03-27T23:34:06.083Z,100.00
2019-03-27T23:37:02.561Z,100.00
2019-03-27T23:40:00.468Z,100.00
2019-03-27T23:42:57.444Z,100.00
2019-03-27T23:45:54.790Z,100.00
2019-03-27T23:48:52.151Z,100.00
2019-03-27T23:51:50.434Z,100.00
2019-03-27T23:54:47.765Z,100.00
2019-03-27T23:57:43.623Z,100.00
